createdAt,value
2022-11-21T00:02:11.194Z,4.17
2022-11-21T00:05:12.595Z,5.67
2022-11-21T00:08:17.114Z,5.18
2022-11-21T00:11:18.595Z,5.07
2022-11-21T00:14:20.027Z,4.67
2022-11-21T00:17:21.442Z,4.30
2022-11-21T00:20:22.888Z,3.72
2022-11-21T00:23:28.187Z,5.43
2022-11-21T00:26:29.595Z,4.03
2022-11-21T00:29:31.003Z,5.73
2022-11-21T00:32:32.407Z,4.60
2022-11-21T00:35:33.816Z,4.95
2022-11-21T00:38:35.742Z,5.82
2022-11-21T00:41:37.139Z,5.93
2022-11-21T00:44:38.525Z,6.00
2022-11-21T00:47:39.956Z,5.05
2022-11-21T00:50:41.394Z,4.05
2022-11-21T00:53:42.840Z,6.40
2022-11-21T00:56:44.257Z,9.07
2022-11-21T00:59:45.651Z,4.78
2022-11-21T01:02:47.050Z,5.45
2022-11-21T01:05:48.506Z,6.60
2022-11-21T01:08:49.910Z,4.75
2022-11-21T01:11:51.376Z,4.43
2022-11-21T01:14:52.885Z,6.57
2022-11-21T01:17:54.267Z,7.80
2022-11-21T01:21:00.212Z,6.93
2022-11-21T01:24:02.682Z,5.07
2022-11-21T01:27:04.084Z,8.05
2022-11-21T01:30:06.058Z,10.07
2022-11-21T01:33:07.471Z,7.53
2022-11-21T01:36:30.749Z,4.90
2022-11-21T01:39:32.190Z,5.65
2022-11-21T01:43:04.542Z,6.87
2022-11-21T01:46:13.835Z,6.93
2022-11-21T01:49:30.584Z,7.38
2022-11-21T01:52:32.676Z,8.70
2022-11-21T01:55:34.748Z,4.60
2022-11-21T01:58:38.716Z,5.55
2022-11-21T02:01:43.337Z,4.85
2022-11-21T02:04:45.572Z,4.30
2022-11-21T02:07:49.243Z,6.40
2022-11-21T02:11:14.136Z,7.68
2022-11-21T02:14:15.839Z,4.63
2022-11-21T02:17:20.383Z,5.88
2022-11-21T02:20:27.974Z,5.18
2022-11-21T02:23:44.215Z,6.45
2022-11-21T02:26:48.133Z,3.92
2022-11-21T02:29:49.540Z,4.88
2022-11-21T02:32:50.938Z,8.63
2022-11-21T02:35:59.691Z,6.75
2022-11-21T02:39:01.511Z,7.53
2022-11-21T02:42:14.983Z,8.38
2022-11-21T02:45:22.675Z,6.00
2022-11-21T02:48:24.304Z,6.18
2022-11-21T02:51:25.713Z,5.63
2022-11-21T02:54:27.367Z,6.55
2022-11-21T02:57:29.068Z,6.63
2022-11-21T03:00:30.604Z,7.37
2022-11-21T03:03:31.996Z,8.13
2022-11-21T03:06:33.451Z,6.80
2022-11-21T03:09:34.916Z,10.30
2022-11-21T03:12:40.652Z,6.43
2022-11-21T03:15:42.043Z,7.35
2022-11-21T03:18:43.463Z,5.55
2022-11-21T03:21:44.901Z,6.93
2022-11-21T03:24:46.370Z,8.60
2022-11-21T03:27:52.123Z,8.48
2022-11-21T03:30:53.517Z,5.88
2022-11-21T03:33:54.916Z,4.97
2022-11-21T03:36:56.346Z,6.93
2022-11-21T03:39:57.752Z,8.15
2022-11-21T03:43:05.280Z,6.57
2022-11-21T03:46:06.696Z,5.88
2022-11-21T03:49:08.870Z,8.43
2022-11-21T03:52:10.274Z,6.65
2022-11-21T03:55:11.745Z,5.13
2022-11-21T03:58:13.175Z,5.07
2022-11-21T04:01:15.519Z,6.30
2022-11-21T04:07:18.368Z,8.05
2022-11-21T04:10:20.840Z,7.53
2022-11-21T04:16:23.636Z,6.90
2022-11-21T04:19:25.045Z,7.70
2022-11-21T04:22:26.516Z,9.67
2022-11-21T04:25:27.916Z,6.13
2022-11-21T04:28:29.589Z,4.90
2022-11-21T04:31:31.005Z,6.30
2022-11-21T04:34:32.446Z,6.47
2022-11-21T04:37:33.844Z,4.55
2022-11-21T04:40:36.050Z,5.68
2022-11-21T04:43:37.482Z,5.95
2022-11-21T04:46:38.892Z,5.07
2022-11-21T04:49:40.371Z,5.38
2022-11-21T04:52:41.997Z,8.23
2022-11-21T04:55:43.411Z,5.65
2022-11-21T04:58:45.037Z,10.20
2022-11-21T05:01:46.509Z,4.78
2022-11-21T05:04:48.240Z,6.40
2022-11-21T05:07:49.639Z,4.45
2022-11-21T05:11:09.765Z,6.22
2022-11-21T05:14:11.207Z,7.45
2022-11-21T05:17:12.601Z,7.57
2022-11-21T05:20:15.062Z,6.00
2022-11-21T05:23:16.535Z,6.47
2022-11-21T05:26:17.930Z,7.67
2022-11-21T05:29:22.654Z,5.40
2022-11-21T05:32:26.635Z,7.90
2022-11-21T05:35:28.067Z,12.07
2022-11-21T05:38:29.455Z,8.03
2022-11-21T05:41:30.875Z,7.18
2022-11-21T05:44:32.291Z,6.00
2022-11-21T05:47:33.761Z,5.72
2022-11-21T05:50:38.162Z,9.17
2022-11-21T05:53:39.572Z,7.13
2022-11-21T05:56:41.075Z,10.30
2022-11-21T05:59:42.468Z,10.20
2022-11-21T06:03:16.091Z,13.43
2022-11-21T06:06:22.173Z,7.97
2022-11-21T06:09:26.185Z,5.22
2022-11-21T06:12:27.578Z,6.43
2022-11-21T06:15:29.388Z,7.05
2022-11-21T06:18:33.640Z,8.10
2022-11-21T06:21:37.197Z,7.78
2022-11-21T06:24:38.600Z,5.78
2022-11-21T06:27:40.047Z,10.03
2022-11-21T06:30:41.429Z,7.60
2022-11-21T06:33:43.904Z,7.00
2022-11-21T06:36:45.821Z,6.38
2022-11-21T06:39:48.654Z,12.55
2022-11-21T06:42:50.131Z,6.65
2022-11-21T06:45:51.564Z,6.13
2022-11-21T06:48:53.767Z,10.27
2022-11-21T06:51:55.215Z,7.20
2022-11-21T06:54:56.628Z,7.32
2022-11-21T06:57:59.645Z,6.82
2022-11-21T07:01:05.834Z,6.88
2022-11-21T07:04:07.256Z,8.43
2022-11-21T07:07:08.718Z,7.87
2022-11-21T07:10:10.417Z,6.73
2022-11-21T07:13:23.659Z,9.90
2022-11-21T07:16:26.215Z,7.70
2022-11-21T07:19:28.133Z,7.38
2022-11-21T07:22:29.759Z,8.80
2022-11-21T07:25:36.302Z,7.30
2022-11-21T07:28:38.245Z,7.60
2022-11-21T07:31:39.675Z,13.37
2022-11-21T07:34:41.169Z,10.32
2022-11-21T07:37:42.620Z,11.57
2022-11-21T07:40:44.158Z,10.00
2022-11-21T07:43:45.605Z,12.37
2022-11-21T07:46:46.991Z,9.30
2022-11-21T07:49:48.414Z,9.75
2022-11-21T07:52:49.820Z,13.68
2022-11-21T07:55:51.238Z,7.05
2022-11-21T07:58:53.085Z,7.60
2022-11-21T08:01:54.550Z,7.15
2022-11-21T08:04:56.036Z,6.87
2022-11-21T08:07:57.431Z,7.78
2022-11-21T08:10:58.834Z,7.72
2022-11-21T08:14:00.240Z,7.13
2022-11-21T08:17:01.851Z,8.90
2022-11-21T08:20:04.277Z,13.68
2022-11-21T08:26:10.053Z,17.48
2022-11-21T08:29:12.541Z,8.73
2022-11-21T08:32:14.646Z,8.95
2022-11-21T08:35:16.054Z,11.93
2022-11-21T08:38:17.586Z,9.80
2022-11-21T08:41:37.659Z,7.17
2022-11-21T08:44:39.565Z,7.95
2022-11-21T08:47:41.368Z,7.00
2022-11-21T08:50:42.835Z,8.32
2022-11-21T08:53:44.210Z,6.33
2022-11-21T08:56:45.799Z,8.30
2022-11-21T08:59:47.343Z,12.50
2022-11-21T09:02:48.710Z,10.53
2022-11-21T09:05:50.106Z,12.15
2022-11-21T09:08:51.627Z,13.75
2022-11-21T09:11:53.234Z,7.93
2022-11-21T09:15:13.485Z,8.67
2022-11-21T09:18:14.878Z,7.40
2022-11-21T09:21:17.390Z,6.23
2022-11-21T09:24:19.410Z,6.43
2022-11-21T09:27:20.824Z,7.72
2022-11-21T09:30:22.267Z,9.45
2022-11-21T09:33:23.659Z,11.13
2022-11-21T09:36:25.096Z,10.95
2022-11-21T09:39:26.759Z,13.73
2022-11-21T09:42:57.250Z,8.57
2022-11-21T09:46:06.058Z,9.63
2022-11-21T09:49:12.296Z,12.55
2022-11-21T09:52:17.531Z,12.93
2022-11-21T09:55:40.993Z,11.40
2022-11-21T09:58:47.475Z,10.52
2022-11-21T10:01:48.945Z,9.00
2022-11-21T10:04:52.003Z,10.33
2022-11-21T10:07:58.614Z,13.13
2022-11-21T10:11:20.469Z,9.05
2022-11-21T10:14:27.942Z,8.35
2022-11-21T10:17:48.338Z,11.75
2022-11-21T10:20:56.732Z,11.52
2022-11-21T10:24:20.059Z,9.63
2022-11-21T10:27:31.638Z,10.18
2022-11-21T10:30:33.527Z,8.00
2022-11-21T10:33:40.192Z,15.93
2022-11-21T10:36:47.668Z,9.52
2022-11-21T10:39:51.107Z,11.98
2022-11-21T10:43:20.728Z,11.68
2022-11-21T10:46:22.156Z,9.52
2022-11-21T10:49:29.844Z,16.47
2022-11-21T10:52:35.309Z,9.38
2022-11-21T10:55:55.498Z,8.52
2022-11-21T10:58:59.192Z,7.53
2022-11-21T11:02:12.852Z,14.15
2022-11-21T11:05:18.077Z,9.82
2022-11-21T11:08:19.481Z,11.20
2022-11-21T11:11:22.499Z,10.00
2022-11-21T11:14:33.343Z,11.52
2022-11-21T11:17:34.767Z,10.50
2022-11-21T11:20:45.003Z,11.70
2022-11-21T11:23:48.441Z,7.40
2022-11-21T11:26:51.625Z,11.88
2022-11-21T11:29:53.245Z,10.30
2022-11-21T11:32:54.905Z,9.40
2022-11-21T11:36:36.837Z,8.47
2022-11-21T11:39:46.246Z,10.80
2022-11-21T11:43:17.301Z,10.95
2022-11-21T11:46:44.599Z,9.05
2022-11-21T11:50:11.354Z,8.00
2022-11-21T11:53:22.958Z,12.43
2022-11-21T11:56:37.930Z,8.03
2022-11-21T11:59:45.349Z,7.55
2022-11-21T12:03:00.123Z,9.88
2022-11-21T12:10:33.666Z,10.05
2022-11-21T12:13:37.093Z,9.60
2022-11-21T12:16:41.210Z,11.02
2022-11-21T12:19:42.708Z,9.93
2022-11-21T12:22:47.149Z,7.90
2022-11-21T12:25:57.857Z,8.60
2022-11-21T12:29:24.145Z,13.10
2022-11-21T12:32:40.837Z,13.38
2022-11-21T12:36:16.742Z,11.73
2022-11-21T12:39:44.962Z,13.63
2022-11-21T12:43:05.227Z,11.68
2022-11-21T12:46:20.581Z,11.63
2022-11-21T12:50:11.255Z,12.50
2022-11-21T12:54:10.857Z,11.77
2022-11-21T12:57:21.013Z,10.77
2022-11-21T13:00:29.307Z,13.93
2022-11-21T13:03:39.829Z,15.27
2022-11-21T13:06:44.357Z,13.65
2022-11-21T13:09:49.074Z,16.02
2022-11-21T13:13:02.715Z,14.18
2022-11-21T13:16:12.676Z,9.57
2022-11-21T13:19:17.190Z,13.07
2022-11-21T13:22:36.931Z,10.77
2022-11-21T13:25:40.390Z,12.30
2022-11-21T13:28:46.184Z,8.55
2022-11-21T13:31:48.111Z,14.98
2022-11-21T13:34:49.637Z,12.00
2022-11-21T13:38:08.523Z,12.43
2022-11-21T13:41:33.120Z,11.10
2022-11-21T13:44:41.391Z,10.90
2022-11-21T13:48:03.517Z,11.07
2022-11-21T13:51:07.656Z,10.82
2022-11-21T13:54:42.211Z,11.02
2022-11-21T13:58:02.516Z,8.55
2022-11-21T14:01:45.603Z,12.45
2022-11-21T14:05:13.170Z,10.60
2022-11-21T14:08:17.990Z,8.60
2022-11-21T14:11:40.105Z,9.02
2022-11-21T14:14:51.701Z,11.73
2022-11-21T14:17:58.318Z,12.97
2022-11-21T14:21:01.574Z,10.13
2022-11-21T14:24:13.346Z,12.93
2022-11-21T14:27:25.597Z,9.95
2022-11-21T14:30:30.115Z,17.50
2022-11-21T14:33:36.425Z,10.07
2022-11-21T14:36:38.591Z,9.93
2022-11-21T14:39:44.517Z,16.15
2022-11-21T14:42:47.114Z,12.73
2022-11-21T14:45:49.522Z,9.00
2022-11-21T14:58:28.280Z,11.73
2022-11-21T15:01:31.791Z,9.47
2022-11-21T15:04:36.129Z,8.55
2022-11-21T15:07:43.644Z,12.57
2022-11-21T15:10:45.663Z,10.93
2022-11-21T15:17:18.760Z,13.10
2022-11-21T15:20:21.053Z,17.70
2022-11-21T15:26:33.800Z,12.68
2022-11-21T15:29:35.200Z,15.38
2022-11-21T15:32:59.679Z,12.93
2022-11-21T15:36:14.997Z,12.65
2022-11-21T15:39:22.359Z,19.25
2022-11-21T15:42:33.500Z,20.23
2022-11-21T15:45:35.023Z,25.35
2022-11-21T15:48:36.696Z,34.47
2022-11-21T15:55:13.581Z,22.88
2022-11-21T15:58:17.584Z,33.50
2022-11-21T16:01:21.863Z,33.42
2022-11-21T16:04:25.996Z,20.05
2022-11-21T16:07:27.761Z,19.45
2022-11-21T16:10:29.298Z,17.13
2022-11-21T16:13:30.788Z,17.10
2022-11-21T16:16:41.489Z,13.37
2022-11-21T16:19:45.507Z,9.85
2022-11-21T16:22:47.969Z,9.20
2022-11-21T16:25:54.255Z,10.18
2022-11-21T16:28:56.731Z,11.93
2022-11-21T16:31:58.187Z,11.65
2022-11-21T16:34:59.889Z,11.20
2022-11-21T16:38:01.272Z,11.87
2022-11-21T16:41:06.843Z,10.95
2022-11-21T16:44:15.907Z,12.02
2022-11-21T16:47:17.291Z,14.57
2022-11-21T16:50:18.795Z,12.33
2022-11-21T16:53:20.241Z,11.47
2022-11-21T16:56:21.698Z,15.43
2022-11-21T16:59:23.176Z,15.27
2022-11-21T17:02:24.636Z,14.90
2022-11-21T17:05:26.285Z,13.40
2022-11-21T17:08:28.556Z,13.68
2022-11-21T17:11:31.330Z,24.08
2022-11-21T17:14:32.789Z,13.57
2022-11-21T17:17:34.431Z,14.37
2022-11-21T17:20:35.859Z,13.95
2022-11-21T17:23:40.451Z,16.13
2022-11-21T17:26:41.853Z,14.43
2022-11-21T17:29:43.361Z,12.70
2022-11-21T17:32:44.909Z,14.73
2022-11-21T17:35:46.332Z,14.20
2022-11-21T17:38:48.387Z,10.57
2022-11-21T17:41:49.925Z,11.77
2022-11-21T17:44:51.408Z,10.83
2022-11-21T17:47:52.916Z,14.40
2022-11-21T17:51:16.321Z,13.50
2022-11-21T17:54:18.648Z,12.02
2022-11-21T18:00:21.583Z,10.50
2022-11-21T18:03:23.664Z,10.67
2022-11-21T18:06:28.142Z,11.75
2022-11-21T18:09:29.813Z,10.50
2022-11-21T18:12:31.534Z,15.48
2022-11-21T18:15:33.777Z,13.40
2022-11-21T18:18:36.942Z,11.32
2022-11-21T18:21:38.494Z,16.25
2022-11-21T18:24:39.902Z,12.63
2022-11-21T18:27:41.404Z,14.98
2022-11-21T18:30:42.809Z,14.03
2022-11-21T18:33:44.797Z,18.87
2022-11-21T18:36:47.618Z,20.25
2022-11-21T18:39:49.108Z,18.63
2022-11-21T18:42:51.926Z,16.73
2022-11-21T18:45:53.369Z,17.88
2022-11-21T18:49:02.772Z,16.25
2022-11-21T18:52:06.078Z,16.45
2022-11-21T18:55:07.903Z,15.18
2022-11-21T18:58:09.655Z,16.40
2022-11-21T19:01:22.531Z,15.40
2022-11-21T19:04:25.542Z,18.08
2022-11-21T19:07:27.125Z,16.63
2022-11-21T19:10:42.749Z,16.98
2022-11-21T19:13:45.040Z,21.65
2022-11-21T19:16:46.466Z,16.87
2022-11-21T19:19:48.478Z,15.57
2022-11-21T19:22:50.144Z,14.50
2022-11-21T19:25:51.571Z,13.07
2022-11-21T19:28:53.131Z,14.73
2022-11-21T19:31:55.722Z,14.57
2022-11-21T19:34:57.180Z,13.02
2022-11-21T19:37:58.788Z,13.43
2022-11-21T19:41:15.794Z,14.80
2022-11-21T19:44:17.196Z,19.27
2022-11-21T19:47:18.619Z,17.93
2022-11-21T19:50:20.335Z,12.67
2022-11-21T19:53:21.773Z,14.88
2022-11-21T19:56:25.086Z,11.80
2022-11-21T19:59:27.502Z,13.50
2022-11-21T20:02:29.641Z,16.27
2022-11-21T20:05:31.072Z,18.17
2022-11-21T20:08:32.902Z,11.55
2022-11-21T20:11:35.266Z,11.15
2022-11-21T20:17:38.078Z,10.57
2022-11-21T20:20:39.583Z,13.23
2022-11-21T20:23:41.499Z,10.80
2022-11-21T20:26:44.101Z,11.77
2022-11-21T20:29:45.512Z,9.73
2022-11-21T20:32:47.017Z,14.00
2022-11-21T20:35:48.418Z,9.53
2022-11-21T20:38:55.064Z,12.45
2022-11-21T20:41:56.542Z,10.63
2022-11-21T20:45:54.267Z,9.30
2022-11-21T20:48:20.582Z,11.98
2022-11-21T20:54:44.332Z,13.32
2022-11-21T20:57:45.778Z,18.02
2022-11-21T21:00:47.163Z,14.80
2022-11-21T21:03:48.582Z,13.02
2022-11-21T21:06:49.989Z,12.80
2022-11-21T21:09:51.647Z,12.18
2022-11-21T21:12:53.395Z,11.15
2022-11-21T21:15:54.907Z,15.43
2022-11-21T21:18:56.931Z,18.17
2022-11-21T21:21:58.401Z,17.95
2022-11-21T21:24:59.846Z,15.03
2022-11-21T21:28:01.433Z,13.80
2022-11-21T21:31:08.073Z,13.93
2022-11-21T21:34:10.006Z,14.70
2022-11-21T21:37:11.511Z,10.90
2022-11-21T21:40:12.951Z,13.40
2022-11-21T21:43:14.338Z,12.73
2022-11-21T21:46:17.666Z,8.93
2022-11-21T21:49:19.119Z,9.73
2022-11-21T21:52:20.570Z,13.40
2022-11-21T21:55:21.991Z,8.38
2022-11-21T21:58:23.395Z,10.20
2022-11-21T22:01:29.639Z,11.50
2022-11-21T22:04:33.060Z,9.38
2022-11-21T22:07:34.617Z,7.68
2022-11-21T22:10:36.086Z,6.65
2022-11-21T22:13:38.770Z,9.07
2022-11-21T22:16:41.439Z,15.15
2022-11-21T22:19:43.236Z,13.05
2022-11-21T22:22:45.882Z,11.57
2022-11-21T22:25:47.407Z,7.32
2022-11-21T22:28:48.878Z,8.50
2022-11-21T22:31:50.892Z,8.38
2022-11-21T22:34:52.538Z,5.35
2022-11-21T22:37:53.945Z,7.50
2022-11-21T22:41:13.645Z,8.30
2022-11-21T22:44:15.117Z,6.68
2022-11-21T22:47:16.583Z,6.40
2022-11-21T22:50:17.964Z,5.63
2022-11-21T22:53:19.469Z,6.97
2022-11-21T22:56:23.381Z,6.37
2022-11-21T22:59:24.825Z,6.32
2022-11-21T23:02:26.273Z,5.30
2022-11-21T23:05:27.688Z,4.93
2022-11-21T23:08:30.805Z,5.32
2022-11-21T23:11:39.245Z,7.60
2022-11-21T23:14:41.955Z,5.45
2022-11-21T23:17:46.056Z,5.35
2022-11-21T23:20:49.969Z,6.95
2022-11-21T23:23:51.542Z,8.07
2022-11-21T23:26:52.961Z,7.30
2022-11-21T23:29:54.351Z,5.40
2022-11-21T23:32:55.762Z,8.10
2022-11-21T23:35:57.200Z,5.78
2022-11-21T23:38:58.616Z,7.83
2022-11-21T23:42:00.029Z,7.47
2022-11-21T23:45:01.430Z,9.27
2022-11-21T23:48:02.887Z,5.63
2022-11-21T23:51:04.309Z,5.00
2022-11-21T23:54:05.735Z,5.40
2022-11-21T23:57:07.201Z,5.20
